createdAt,value
2019-03-09T00:00:41.245Z,5.53
2019-03-09T00:03:16.323Z,4.57
2019-03-09T00:05:48.183Z,6.43
2019-03-09T00:08:18.944Z,6.93
2019-03-09T00:10:49.446Z,6.13
2019-03-09T00:13:19.618Z,10.40
2019-03-09T00:15:50.476Z,6.87
2019-03-09T00:18:20.794Z,8.03
2019-03-09T00:20:51.378Z,10.40
2019-03-09T00:23:40.719Z,7.53
2019-03-09T00:26:17.982Z,7.13
2019-03-09T00:28:59.974Z,6.97
2019-03-09T00:31:55.477Z,6.67
2019-03-09T00:34:25.956Z,6.80
2019-03-09T00:36:56.666Z,5.53
2019-03-09T00:39:26.983Z,7.50
2019-03-09T00:41:59.379Z,5.77
2019-03-09T00:44:29.955Z,7.37
2019-03-09T00:47:00.490Z,7.93
2019-03-09T00:49:30.835Z,6.00
2019-03-09T00:52:03.483Z,9.53
2019-03-09T00:54:33.513Z,7.47
2019-03-09T00:57:03.813Z,8.30
2019-03-09T00:59:33.931Z,7.63
2019-03-09T01:02:04.334Z,9.77
2019-03-09T01:04:34.928Z,9.57
2019-03-09T01:07:05.130Z,5.70
2019-03-09T01:09:36.560Z,6.47
2019-03-09T01:12:11.595Z,5.07
2019-03-09T01:14:42.706Z,6.53
2019-03-09T01:17:13.120Z,7.37
2019-03-09T01:19:43.159Z,7.03
2019-03-09T01:22:13.346Z,4.43
2019-03-09T01:24:43.787Z,5.13
2019-03-09T01:27:13.813Z,5.00
2019-03-09T01:29:43.836Z,5.90
2019-03-09T01:32:14.245Z,2.33
2019-03-09T01:34:44.525Z,8.13
2019-03-09T01:37:14.688Z,4.60
2019-03-09T01:39:44.827Z,3.77
2019-03-09T01:42:15.205Z,4.77
2019-03-09T01:44:45.375Z,4.77
2019-03-09T01:47:15.610Z,3.23
2019-03-09T01:49:45.584Z,4.13
2019-03-09T01:52:16.008Z,4.67
2019-03-09T01:54:46.066Z,5.40
2019-03-09T01:57:16.086Z,7.10
2019-03-09T01:59:47.181Z,7.80
2019-03-09T02:02:17.140Z,4.57
2019-03-09T02:04:47.134Z,6.53
2019-03-09T02:07:17.248Z,4.20
2019-03-09T02:09:48.382Z,2.93
2019-03-09T02:12:18.527Z,3.33
2019-03-09T02:14:48.660Z,6.27
2019-03-09T02:17:19.170Z,2.07
2019-03-09T02:19:49.500Z,5.47
2019-03-09T02:22:19.729Z,5.20
2019-03-09T02:24:49.830Z,2.10
2019-03-09T02:27:19.948Z,3.27
2019-03-09T02:29:49.946Z,3.67
2019-03-09T02:32:20.215Z,3.00
2019-03-09T02:34:50.332Z,3.70
2019-03-09T02:37:20.287Z,2.90
2019-03-09T02:40:05.639Z,2.60
2019-03-09T02:42:35.798Z,3.17
2019-03-09T02:45:07.380Z,3.80
2019-03-09T02:47:37.548Z,5.50
2019-03-09T02:50:09.039Z,3.37
2019-03-09T02:52:40.123Z,3.00
2019-03-09T02:55:10.228Z,3.90
2019-03-09T02:57:42.109Z,3.70
2019-03-09T03:00:15.371Z,2.27
2019-03-09T03:02:57.360Z,4.97
2019-03-09T03:05:28.611Z,3.17
2019-03-09T03:07:58.642Z,3.73
2019-03-09T03:10:28.819Z,1.80
2019-03-09T03:12:59.060Z,2.67
2019-03-09T03:15:33.497Z,1.27
2019-03-09T03:18:03.517Z,1.13
2019-03-09T03:20:35.267Z,1.90
2019-03-09T03:23:05.586Z,2.30
2019-03-09T03:25:35.721Z,2.70
2019-03-09T03:28:05.716Z,1.90
2019-03-09T03:30:35.902Z,3.77
2019-03-09T03:33:06.056Z,3.20
2019-03-09T03:35:36.245Z,0.77
2019-03-09T03:38:06.339Z,1.50
2019-03-09T03:40:36.415Z,1.57
2019-03-09T03:43:06.499Z,1.83
2019-03-09T03:45:37.604Z,1.20
2019-03-09T03:48:07.715Z,1.20
2019-03-09T03:50:37.835Z,1.33
2019-03-09T03:53:07.955Z,2.27
2019-03-09T03:55:38.117Z,3.13
2019-03-09T03:58:08.311Z,1.43
2019-03-09T04:00:38.569Z,1.97
2019-03-09T04:03:08.599Z,1.00
2019-03-09T04:05:38.879Z,0.97
2019-03-09T04:08:08.979Z,2.53
2019-03-09T04:10:39.395Z,2.07
2019-03-09T04:13:09.670Z,1.70
2019-03-09T04:15:40.066Z,1.87
2019-03-09T04:18:10.144Z,1.87
2019-03-09T04:20:40.327Z,1.87
2019-03-09T04:23:10.483Z,1.77
2019-03-09T04:25:40.513Z,0.60
2019-03-09T04:28:10.625Z,1.90
2019-03-09T04:30:40.665Z,0.70
2019-03-09T04:33:10.674Z,1.27
2019-03-09T04:35:40.685Z,1.00
2019-03-09T04:38:11.447Z,0.87
2019-03-09T04:40:41.327Z,0.80
2019-03-09T04:43:12.791Z,4.20
2019-03-09T04:45:42.899Z,0.63
2019-03-09T04:48:12.899Z,1.73
2019-03-09T04:50:42.911Z,0.80
2019-03-09T04:53:12.957Z,0.87
2019-03-09T04:55:42.991Z,0.90
2019-03-09T04:58:12.973Z,1.23
2019-03-09T05:00:43.093Z,1.20
2019-03-09T05:03:13.146Z,1.00
2019-03-09T05:05:43.362Z,1.00
2019-03-09T05:08:28.504Z,1.23
2019-03-09T05:11:05.447Z,1.00
2019-03-09T05:13:48.677Z,0.80
2019-03-09T05:16:19.001Z,1.30
2019-03-09T05:18:49.206Z,1.60
2019-03-09T05:21:19.331Z,1.70
2019-03-09T05:23:49.534Z,2.03
2019-03-09T05:26:20.089Z,2.03
2019-03-09T05:28:50.667Z,1.90
2019-03-09T05:31:21.022Z,2.33
2019-03-09T05:33:51.150Z,3.23
2019-03-09T05:36:21.590Z,3.70
2019-03-09T05:38:51.698Z,2.77
2019-03-09T05:41:21.849Z,3.70
2019-03-09T05:43:52.056Z,4.00
2019-03-09T05:46:22.587Z,5.23
2019-03-09T05:48:52.678Z,5.57
2019-03-09T05:51:22.622Z,7.07
2019-03-09T05:53:52.903Z,6.13
2019-03-09T05:56:23.223Z,6.60
2019-03-09T05:58:53.253Z,6.37
2019-03-09T06:01:23.677Z,8.00
2019-03-09T06:03:53.727Z,8.07
2019-03-09T06:06:36.526Z,8.10
2019-03-09T06:09:07.056Z,7.57
2019-03-09T06:11:37.329Z,8.27
2019-03-09T06:14:07.905Z,6.73
2019-03-09T06:16:44.095Z,7.60
2019-03-09T06:19:14.414Z,7.87
2019-03-09T06:21:44.654Z,6.53
2019-03-09T06:24:14.961Z,7.23
2019-03-09T06:26:46.312Z,6.77
2019-03-09T06:29:16.385Z,9.30
2019-03-09T06:32:23.025Z,8.83
2019-03-09T06:34:53.110Z,6.53
2019-03-09T06:37:23.609Z,8.73
2019-03-09T06:39:55.680Z,6.03
2019-03-09T06:42:41.582Z,6.80
2019-03-09T06:45:16.477Z,7.77
2019-03-09T06:47:46.708Z,5.83
2019-03-09T06:50:18.818Z,7.13
2019-03-09T06:52:49.200Z,6.30
2019-03-09T06:55:19.683Z,5.57
2019-03-09T06:57:49.999Z,4.57
2019-03-09T07:00:28.235Z,7.17
2019-03-09T07:03:21.065Z,4.73
2019-03-09T07:05:51.249Z,6.47
2019-03-09T07:08:21.472Z,8.83
2019-03-09T07:10:51.606Z,8.73
2019-03-09T07:13:21.831Z,6.97
2019-03-09T07:15:52.157Z,6.83
2019-03-09T07:18:27.888Z,4.70
2019-03-09T07:20:58.190Z,7.23
2019-03-09T07:23:28.463Z,8.20
2019-03-09T07:25:59.761Z,9.77
2019-03-09T07:28:29.934Z,10.30
2019-03-09T07:31:00.206Z,7.67
2019-03-09T07:33:30.288Z,5.43
2019-03-09T07:36:01.002Z,11.97
2019-03-09T07:38:31.201Z,9.30
2019-03-09T07:41:01.640Z,7.43
2019-03-09T07:43:32.181Z,6.17
2019-03-09T07:46:02.191Z,5.90
2019-03-09T07:48:34.574Z,5.30
2019-03-09T07:51:05.219Z,6.33
2019-03-09T07:53:35.201Z,5.83
2019-03-09T07:56:05.462Z,7.57
2019-03-09T07:58:35.699Z,7.80
2019-03-09T08:01:06.413Z,6.50
2019-03-09T08:03:36.623Z,8.03
2019-03-09T08:06:06.701Z,9.37
2019-03-09T08:08:36.888Z,6.40
2019-03-09T08:11:06.875Z,9.10
2019-03-09T08:13:37.252Z,4.10
2019-03-09T08:16:07.331Z,5.53
2019-03-09T08:18:37.726Z,4.47
2019-03-09T08:21:07.904Z,6.77
2019-03-09T08:23:38.014Z,5.47
2019-03-09T08:26:08.144Z,7.30
2019-03-09T08:28:38.326Z,7.20
2019-03-09T08:31:08.702Z,5.97
2019-03-09T08:33:38.959Z,8.43
2019-03-09T08:36:09.196Z,6.67
2019-03-09T08:38:39.177Z,5.07
2019-03-09T08:41:09.473Z,7.20
2019-03-09T08:43:39.554Z,7.30
2019-03-09T08:46:11.441Z,6.60
2019-03-09T08:48:41.968Z,4.87
2019-03-09T08:51:12.198Z,4.63
2019-03-09T08:53:50.821Z,7.23
2019-03-09T08:56:21.386Z,7.33
2019-03-09T08:58:51.813Z,6.20
2019-03-09T09:01:31.773Z,6.77
2019-03-09T09:04:03.045Z,5.33
2019-03-09T09:06:33.420Z,4.80
2019-03-09T09:09:05.003Z,5.70
2019-03-09T09:11:36.568Z,6.63
2019-03-09T09:14:07.263Z,6.37
2019-03-09T09:16:37.651Z,5.03
2019-03-09T09:19:07.834Z,4.13
2019-03-09T09:21:38.301Z,7.63
2019-03-09T09:24:08.752Z,4.20
2019-03-09T09:26:39.103Z,6.13
2019-03-09T09:29:09.129Z,6.13
2019-03-09T09:31:39.581Z,4.70
2019-03-09T09:34:11.809Z,8.27
2019-03-09T09:36:42.715Z,4.40
2019-03-09T09:39:14.187Z,5.23
2019-03-09T09:41:44.354Z,5.63
2019-03-09T09:44:28.863Z,5.53
2019-03-09T09:46:59.107Z,4.63
2019-03-09T09:49:30.031Z,9.37
2019-03-09T09:52:05.722Z,7.90
2019-03-09T09:54:36.573Z,4.33
2019-03-09T09:57:06.847Z,5.67
2019-03-09T09:59:37.023Z,11.27
2019-03-09T10:02:09.682Z,6.20
2019-03-09T10:04:43.455Z,5.00
2019-03-09T10:07:16.356Z,5.03
2019-03-09T10:09:47.733Z,7.20
2019-03-09T10:12:18.347Z,6.80
2019-03-09T10:14:50.970Z,2.67
2019-03-09T10:17:25.366Z,4.13
2019-03-09T10:19:57.930Z,4.47
2019-03-09T10:22:28.969Z,5.37
2019-03-09T10:25:01.932Z,10.90
2019-03-09T10:27:32.424Z,4.67
2019-03-09T10:30:02.704Z,5.73
2019-03-09T10:32:33.017Z,6.73
2019-03-09T10:35:03.166Z,7.97
2019-03-09T10:37:33.497Z,6.67
2019-03-09T10:40:03.637Z,3.63
2019-03-09T10:42:33.881Z,5.63
2019-03-09T10:45:04.989Z,2.47
2019-03-09T10:47:35.272Z,4.10
2019-03-09T10:50:07.030Z,5.17
2019-03-09T10:52:37.597Z,5.50
2019-03-09T10:55:09.600Z,6.87
2019-03-09T10:57:39.703Z,3.43
2019-03-09T11:00:40.322Z,5.70
2019-03-09T11:03:10.626Z,6.27
2019-03-09T11:05:40.777Z,8.00
2019-03-09T11:08:13.490Z,5.03
2019-03-09T11:10:44.294Z,3.70
2019-03-09T11:13:15.861Z,8.20
2019-03-09T11:15:48.538Z,5.60
2019-03-09T11:18:18.847Z,4.30
2019-03-09T11:20:53.589Z,6.00
2019-03-09T11:23:24.301Z,2.90
2019-03-09T11:25:59.814Z,8.13
2019-03-09T11:28:31.723Z,6.97
2019-03-09T11:31:01.937Z,6.40
2019-03-09T11:33:43.676Z,7.83
2019-03-09T11:36:33.789Z,8.63
2019-03-09T11:39:29.747Z,4.23
2019-03-09T11:42:29.113Z,7.30
2019-03-09T11:45:27.467Z,11.40
2019-03-09T11:48:27.079Z,5.93
2019-03-09T11:51:08.994Z,8.20
2019-03-09T11:54:08.122Z,6.43
2019-03-09T11:56:40.155Z,8.13
2019-03-09T11:59:11.003Z,4.80
2019-03-09T12:01:41.446Z,7.47
2019-03-09T12:04:12.690Z,2.80
2019-03-09T12:06:43.840Z,7.90
2019-03-09T12:09:18.340Z,5.43
2019-03-09T12:12:00.192Z,6.50
2019-03-09T12:14:32.781Z,5.70
2019-03-09T12:17:12.605Z,3.03
2019-03-09T12:19:39.730Z,9.40
2019-03-09T12:22:09.943Z,5.00
2019-03-09T12:24:40.353Z,8.43
2019-03-09T12:27:11.728Z,5.33
2019-03-09T12:29:42.025Z,4.33
2019-03-09T12:32:12.317Z,2.47
2019-03-09T12:34:42.573Z,5.67
2019-03-09T12:37:13.937Z,8.13
2019-03-09T12:39:45.338Z,5.50
2019-03-09T12:42:15.690Z,7.10
2019-03-09T12:44:47.424Z,3.43
2019-03-09T12:47:19.171Z,4.97
2019-03-09T12:49:51.250Z,2.70
2019-03-09T12:52:25.590Z,4.30
2019-03-09T12:54:55.996Z,2.90
2019-03-09T12:57:26.405Z,2.03
2019-03-09T12:59:56.766Z,3.63
2019-03-09T13:02:27.201Z,1.83
2019-03-09T13:04:57.668Z,3.97
2019-03-09T13:07:28.675Z,1.27
2019-03-09T13:09:58.795Z,5.03
2019-03-09T13:12:32.561Z,4.80
2019-03-09T13:15:04.623Z,3.13
2019-03-09T13:17:34.673Z,3.30
2019-03-09T13:20:05.151Z,3.20
2019-03-09T13:22:35.635Z,3.60
2019-03-09T13:25:07.005Z,4.03
2019-03-09T13:27:37.417Z,5.20
2019-03-09T13:30:09.479Z,5.07
2019-03-09T13:32:39.889Z,5.07
2019-03-09T13:35:10.463Z,5.13
2019-03-09T13:37:40.774Z,5.30
2019-03-09T13:40:11.045Z,8.03
2019-03-09T13:43:16.215Z,8.40
2019-03-09T13:46:10.889Z,10.47
2019-03-09T13:48:45.013Z,6.40
2019-03-09T13:51:15.120Z,4.63
2019-03-09T13:53:49.326Z,10.10
2019-03-09T13:56:19.511Z,6.23
2019-03-09T13:58:49.640Z,7.83
2019-03-09T14:01:19.839Z,9.00
2019-03-09T14:03:49.954Z,12.23
2019-03-09T14:06:22.069Z,12.63
2019-03-09T14:08:52.182Z,9.70
2019-03-09T14:11:22.367Z,11.20
2019-03-09T14:13:52.553Z,2.77
2019-03-09T14:16:22.611Z,7.50
2019-03-09T14:18:52.984Z,8.30
2019-03-09T14:21:23.203Z,8.87
2019-03-09T14:23:53.395Z,6.57
2019-03-09T14:26:23.906Z,7.43
2019-03-09T14:28:54.220Z,8.37
2019-03-09T14:31:24.576Z,8.13
2019-03-09T14:33:54.961Z,9.50
2019-03-09T14:36:25.209Z,8.23
2019-03-09T14:38:55.681Z,9.00
2019-03-09T14:41:25.931Z,10.60
2019-03-09T14:43:56.353Z,11.23
2019-03-09T14:46:26.502Z,8.40
2019-03-09T14:48:56.706Z,3.83
2019-03-09T14:51:26.811Z,2.57
2019-03-09T14:53:57.066Z,6.63
2019-03-09T14:56:28.502Z,6.00
2019-03-09T14:58:58.835Z,6.20
2019-03-09T15:01:29.377Z,11.20
2019-03-09T15:03:59.877Z,12.20
2019-03-09T15:06:30.201Z,8.00
2019-03-09T15:09:00.740Z,11.23
2019-03-09T15:11:32.830Z,9.80
2019-03-09T15:14:03.079Z,10.60
2019-03-09T15:16:33.251Z,9.43
2019-03-09T15:19:03.831Z,8.37
2019-03-09T15:21:34.721Z,7.73
2019-03-09T15:24:09.801Z,5.27
2019-03-09T15:26:41.549Z,5.30
2019-03-09T15:29:12.168Z,9.93
2019-03-09T15:31:42.476Z,13.30
2019-03-09T15:34:12.887Z,15.60
2019-03-09T15:36:43.226Z,13.67
2019-03-09T15:39:14.721Z,15.10
2019-03-09T15:41:44.892Z,12.60
2019-03-09T15:44:15.385Z,19.67
2019-03-09T15:46:45.908Z,14.03
2019-03-09T15:49:16.040Z,19.23
2019-03-09T15:51:46.099Z,11.67
2019-03-09T15:54:16.298Z,15.63
2019-03-09T15:56:46.812Z,15.60
2019-03-09T15:59:19.441Z,7.63
2019-03-09T16:01:50.033Z,12.20
2019-03-09T16:04:21.134Z,15.60
2019-03-09T16:06:53.593Z,3.57
2019-03-09T16:09:24.064Z,7.20
2019-03-09T16:11:54.550Z,8.33
2019-03-09T16:14:24.878Z,11.90
2019-03-09T16:16:56.340Z,5.37
2019-03-09T16:19:26.774Z,12.23
2019-03-09T16:21:57.084Z,13.63
2019-03-09T16:24:28.242Z,8.80
2019-03-09T16:26:58.819Z,6.27
2019-03-09T16:29:29.193Z,4.47
2019-03-09T16:32:00.222Z,6.30
2019-03-09T16:34:30.613Z,3.80
2019-03-09T16:37:07.383Z,2.17
2019-03-09T16:39:37.700Z,5.67
2019-03-09T16:42:08.673Z,5.50
2019-03-09T16:44:39.450Z,3.00
2019-03-09T16:47:09.595Z,3.17
2019-03-09T16:49:39.907Z,2.80
2019-03-09T16:52:10.889Z,6.57
2019-03-09T16:54:41.581Z,4.73
2019-03-09T16:57:12.003Z,6.37
2019-03-09T16:59:44.353Z,7.20
2019-03-09T17:02:27.367Z,3.43
2019-03-09T17:04:50.003Z,8.87
2019-03-09T17:07:20.305Z,6.90
2019-03-09T17:09:52.169Z,7.00
2019-03-09T17:12:22.783Z,4.97
2019-03-09T17:14:53.115Z,9.27
2019-03-09T17:17:24.128Z,7.07
2019-03-09T17:19:54.587Z,5.77
2019-03-09T17:22:32.868Z,7.03
2019-03-09T17:24:58.116Z,6.67
2019-03-09T17:27:28.752Z,7.00
2019-03-09T17:29:59.105Z,10.67
2019-03-09T17:32:29.390Z,11.03
2019-03-09T17:34:59.658Z,5.97
2019-03-09T17:37:31.270Z,5.97
2019-03-09T17:40:04.560Z,12.27
2019-03-09T17:42:34.904Z,5.27
2019-03-09T17:45:07.279Z,11.07
2019-03-09T17:47:37.155Z,6.73
2019-03-09T17:50:08.766Z,5.13
2019-03-09T17:52:39.516Z,11.27
2019-03-09T17:55:11.130Z,8.60
2019-03-09T17:57:41.470Z,6.83
2019-03-09T18:00:15.166Z,9.13
2019-03-09T18:02:45.723Z,9.13
2019-03-09T18:05:19.398Z,8.57
2019-03-09T18:07:47.707Z,6.73
2019-03-09T18:10:32.671Z,8.73
2019-03-09T18:13:03.044Z,9.20
2019-03-09T18:15:36.105Z,11.50
2019-03-09T18:18:07.346Z,8.17
2019-03-09T18:20:37.696Z,9.63
2019-03-09T18:23:07.901Z,4.90
2019-03-09T18:25:38.361Z,10.53
2019-03-09T18:28:09.751Z,7.57
2019-03-09T18:30:40.083Z,13.00
2019-03-09T18:33:21.152Z,8.27
2019-03-09T18:35:51.386Z,7.63
2019-03-09T18:38:21.909Z,7.00
2019-03-09T18:40:54.120Z,7.13
2019-03-09T18:43:24.234Z,8.60
2019-03-09T18:45:54.465Z,5.70
2019-03-09T18:48:25.710Z,12.13
2019-03-09T18:51:03.156Z,10.63
2019-03-09T18:53:33.300Z,10.00
2019-03-09T18:56:03.846Z,9.30
2019-03-09T18:58:34.260Z,10.57
2019-03-09T19:01:05.754Z,8.37
2019-03-09T19:03:36.501Z,8.97
2019-03-09T19:06:06.739Z,9.93
2019-03-09T19:08:37.224Z,9.07
2019-03-09T19:11:07.328Z,7.10
2019-03-09T19:13:37.611Z,7.73
2019-03-09T19:16:08.093Z,6.37
2019-03-09T19:18:40.765Z,9.63
2019-03-09T19:21:13.631Z,6.03
2019-03-09T19:23:44.017Z,7.67
2019-03-09T19:26:15.121Z,8.70
2019-03-09T19:28:45.504Z,10.13
2019-03-09T19:31:15.662Z,7.87
2019-03-09T19:33:45.899Z,10.77
2019-03-09T19:36:16.228Z,10.73
2019-03-09T19:38:46.499Z,5.80
2019-03-09T19:41:16.828Z,9.83
2019-03-09T19:43:47.181Z,8.33
2019-03-09T19:46:18.033Z,10.37
2019-03-09T19:48:49.032Z,8.50
2019-03-09T19:51:20.266Z,6.57
2019-03-09T19:54:02.914Z,10.70
2019-03-09T19:56:34.305Z,7.77
2019-03-09T19:59:05.021Z,5.70
2019-03-09T20:01:35.629Z,12.57
2019-03-09T20:04:05.969Z,8.07
2019-03-09T20:06:36.487Z,11.73
2019-03-09T20:09:08.259Z,10.27
2019-03-09T20:11:40.975Z,14.87
2019-03-09T20:14:11.480Z,11.53
2019-03-09T20:16:41.728Z,13.87
2019-03-09T20:19:15.630Z,9.00
2019-03-09T20:21:45.791Z,11.77
2019-03-09T20:24:15.972Z,9.73
2019-03-09T20:27:11.229Z,7.80
2019-03-09T20:29:45.302Z,10.97
2019-03-09T20:32:31.203Z,9.00
2019-03-09T20:35:12.510Z,17.53
2019-03-09T20:37:43.968Z,16.03
2019-03-09T20:40:14.830Z,9.57
2019-03-09T20:42:45.105Z,16.67
2019-03-09T20:45:15.379Z,12.73
2019-03-09T20:47:47.728Z,9.10
2019-03-09T20:50:18.116Z,17.77
2019-03-09T20:52:56.209Z,15.10
2019-03-09T20:55:26.589Z,17.97
2019-03-09T20:57:58.038Z,11.70
2019-03-09T21:00:28.371Z,12.80
2019-03-09T21:02:58.675Z,13.83
2019-03-09T21:05:28.834Z,10.70
2019-03-09T21:07:59.109Z,11.10
2019-03-09T21:10:29.618Z,6.77
2019-03-09T21:13:04.304Z,13.87
2019-03-09T21:15:35.820Z,13.77
2019-03-09T21:18:06.061Z,7.27
2019-03-09T21:20:37.311Z,8.57
2019-03-09T21:23:07.521Z,8.00
2019-03-09T21:25:39.829Z,8.67
2019-03-09T21:28:13.847Z,8.60
2019-03-09T21:30:45.221Z,10.60
2019-03-09T21:33:18.772Z,12.30
2019-03-09T21:35:49.163Z,5.03
2019-03-09T21:38:19.568Z,10.90
2019-03-09T21:40:50.024Z,9.50
2019-03-09T21:43:20.763Z,7.07
2019-03-09T21:45:56.753Z,10.60
2019-03-09T21:48:26.832Z,8.50
2019-03-09T21:50:57.218Z,9.93
2019-03-09T21:53:29.557Z,6.70
2019-03-09T21:55:59.882Z,12.60
2019-03-09T21:58:30.264Z,6.47
2019-03-09T22:01:00.903Z,7.20
2019-03-09T22:03:34.547Z,9.90
2019-03-09T22:06:06.601Z,11.47
2019-03-09T22:08:38.767Z,10.40
2019-03-09T22:11:08.862Z,14.33
2019-03-09T22:13:39.459Z,12.57
2019-03-09T22:16:09.491Z,10.33
2019-03-09T22:18:39.962Z,9.27
2019-03-09T22:21:10.205Z,9.80
2019-03-09T22:23:43.965Z,8.40
2019-03-09T22:26:12.115Z,8.03
2019-03-09T22:28:42.480Z,6.77
2019-03-09T22:31:12.526Z,11.93
2019-03-09T22:33:42.732Z,7.13
2019-03-09T22:36:16.997Z,10.37
2019-03-09T22:38:48.827Z,7.97
2019-03-09T22:41:19.083Z,4.77
2019-03-09T22:43:49.313Z,6.47
2019-03-09T22:46:20.030Z,8.57
2019-03-09T22:48:50.430Z,8.77
2019-03-09T22:51:23.768Z,12.37
2019-03-09T22:53:54.055Z,7.03
2019-03-09T22:56:24.504Z,5.50
2019-03-09T22:58:54.860Z,7.27
2019-03-09T23:01:25.391Z,11.40
2019-03-09T23:04:01.299Z,4.37
2019-03-09T23:06:34.332Z,8.47
2019-03-09T23:09:05.166Z,6.87
2019-03-09T23:11:37.937Z,11.63
2019-03-09T23:14:08.155Z,7.20
2019-03-09T23:16:41.140Z,5.33
2019-03-09T23:19:11.723Z,7.43
2019-03-09T23:21:42.160Z,9.37
2019-03-09T23:24:12.178Z,12.30
2019-03-09T23:26:42.291Z,16.77
2019-03-09T23:29:13.959Z,10.53
2019-03-09T23:31:44.266Z,8.57
2019-03-09T23:34:14.500Z,11.33
2019-03-09T23:36:44.575Z,18.80
2019-03-09T23:39:14.675Z,9.40
2019-03-09T23:41:44.840Z,10.73
2019-03-09T23:44:14.958Z,9.40
2019-03-09T23:46:45.279Z,11.80
2019-03-09T23:49:15.427Z,12.03
2019-03-09T23:51:45.521Z,9.20
2019-03-09T23:54:16.211Z,9.50
2019-03-09T23:56:46.562Z,15.33
2019-03-09T23:59:16.712Z,11.67
